Latest Coastal Weather Observations for Cape Nelson

IDV60701

Issued at 2:41 pm EDT Saturday 25 November 2017 (issued every 10 minutes, with the page automatically refreshed every 10 minutes)

About coastal observations | Map of coastal stations | Coastal observations for VIC | Marine services | Other Formats
Station Details ID: 090184 Name: CAPE NELSON LIGHTHOUSE Lat: -38.43 Lon: 141.54 Height: 45.4 m
Data from the previous 72 hours. | See also: Recent months at Cape Nelson
Date/Time
EDT
Temp
°C
Wind Pressure Rain since
9am
mm
Weather Cloud Vis
km
Sea
Height
m
Swell
Dir  Spd
kts
Gust
kts
hPa Trend Height
m
Period
s
Dir
25/02:30pm 22.0 SE 7 8 1011.8 - 0.0 - - - - - - -
25/02:00pm 20.0 SE 7 9 1011.9 - 0.0 - - - - - - -
25/01:30pm 21.7 ESE 8 11 1012.2 - 0.0 - - - - - - -
25/01:00pm 21.3 SE 8 10 1012.3 - 0.0 - - - - - - -
25/12:30pm 20.9 SE 8 11 1012.5 - 0.0 - - - - - - -
25/12:00pm 20.5 SE 9 12 1012.6 - 0.0 - - - - - - -
25/11:30am 20.5 SE 9 12 1012.8 - 0.0 - - - - - - -
25/11:00am 20.3 SE 9 13 1012.9 - 0.0 - - - - - - -
25/10:30am 20.5 SE 9 12 1012.9 - 0.0 - - - - - - -
25/10:00am 19.4 SE 9 11 1012.9 - 0.0 - - - - - - -
25/09:30am 19.4 SE 7 9 1013.0 - 0.0 - - - - - - -
25/09:00am 19.1 SE 7 9 1012.9 - 2.0 - - - - - - -
25/08:30am 18.8 SSE 7 8 1012.9 - 2.0 - - - - - - -
25/08:00am 18.4 SE 6 9 1012.8 - 2.0 - - - - - - -
25/07:30am 17.6 SSE 6 8 1012.9 - 2.0 - - - - - - -
25/07:00am 17.4 SE 5 7 1012.7 - 2.0 - - - - - - -
25/06:30am 17.3 SSE 4 6 1012.4 - 2.0 - - - - - - -
25/06:00am 17.2 SSE 4 5 1012.4 - 1.8 - - - - - - -
25/05:30am 17.2 SE 4 5 1012.2 - 1.8 - - - - - - -
25/05:00am 17.3 E 8 9 1012.0 - 1.8 - - - - - - -
25/04:30am 17.3 ESE 6 7 1012.0 - 1.8 - - - - - - -
25/04:00am 17.4 ESE 4 5 1012.2 - 1.8 - - - - - - -
25/03:30am 17.3 SSE 7 8 1012.0 - 1.8 - - - - - - -
25/03:00am 17.3 ESE 6 7 1012.3 - 1.8 - - - - - - -
25/02:30am 17.4 E 10 12 1012.6 - 1.8 - - - - - - -
25/02:00am 17.3 E 9 11 1012.8 - 1.8 - - - - - - -
25/01:30am 17.2 ESE 5 8 1013.0 - 1.8 - - - - - - -
25/01:00am 17.2 E 9 11 1013.8 - 1.2 - - - - - - -
25/12:30am 17.3 E 11 15 1014.1 - 1.0 - - - - - - -
25/12:00am 17.4 E 8 10 1014.1 - 0.0 - - - - - - -
 
Date/Time
EDT
Temp
°C
Wind Pressure Rain since
9am
mm
Weather Cloud Vis
km
Sea
Height
m
Swell
Dir  Spd
kts
Gust
kts
hPa Trend Height
m
Period
s
Dir
24/11:30pm 17.3 E 8 9 1013.8 - 0.0 - - - - - - -
24/11:00pm 17.3 ESE 6 8 1013.9 - 0.0 - - - - - - -
24/10:30pm 17.3 SE 6 8 1013.7 - 0.0 - - - - - - -
24/10:00pm 17.4 ESE 5 9 1013.8 - 0.0 - - - - - - -
24/09:30pm 17.5 E 6 8 1013.6 - 0.0 - - - - - - -
24/09:00pm 17.6 E 6 8 1013.7 - 0.0 - - - - - - -
24/08:30pm 18.0 ESE 5 6 1013.5 - 0.0 - - - - - - -
24/08:00pm 18.5 SE 4 5 1013.6 - 0.0 - - - - - - -
24/07:30pm 18.4 S 5 7 1013.1 - 0.0 - - - - - - -
24/07:00pm 18.9 SE 5 7 1012.7 - 0.0 - - - - - - -
24/06:30pm 19.8 SSE 5 7 1012.5 - 0.0 - - - - - - -
24/06:00pm 18.7 SSE 6 8 1012.5 - 0.0 - - - - - - -
24/05:30pm 19.6 S 6 8 1012.7 - 0.0 - - - - - - -
24/05:00pm 20.4 SE 6 8 1012.6 - 0.0 - - - - - - -
24/04:30pm 20.0 ESE 5 6 1012.7 - 0.0 - - - - - - -
24/04:00pm 19.9 E 8 10 1012.4 - 0.0 - - - - - - -
24/03:30pm 19.5 E 8 11 1012.6 - 0.0 - - - - - - -
24/03:00pm 19.4 E 7 10 1012.9 - 0.0 - - - - - - -
24/02:30pm 20.1 SE 7 9 1013.2 - 0.0 - - - - - - -
24/02:00pm 20.9 SE 7 8 1013.6 - 0.0 - - - - - - -
24/01:30pm 19.4 SSE 6 8 1013.9 - 0.0 - - - - - - -
24/01:00pm 19.9 SSE 5 7 1014.2 - 0.0 - - - - - - -
24/12:30pm 19.5 S 5 6 1014.5 - 0.0 - - - - - - -
24/12:00pm 19.3 S 5 7 1014.6 - 0.0 - - - - - - -
24/11:30am 18.1 S 5 7 1014.5 - 0.0 - - - - - - -
24/11:00am 19.1 SSW 5 7 1014.1 - 0.0 - - - - - - -
24/10:30am 19.5 SW 4 6 1013.9 - 0.0 - - - - - - -
24/10:00am 19.3 WSW 4 5 1013.9 - 0.0 - - - - - - -
24/09:30am 18.9 WSW 4 7 1014.0 - 0.0 - - - - - - -
24/09:00am 18.5 WSW 3 5 1013.7 - 0.0 - - - - - - -
24/08:30am 18.1 W 5 6 1013.2 - 0.0 - - - - - - -
24/08:00am 17.7 W 4 5 1012.9 - 0.0 - - - - - - -
24/07:30am 17.5 WSW 5 6 1012.6 - 0.0 - - - - - - -
24/07:00am 17.4 SW 4 5 1012.2 - 0.0 - - - - - - -
24/06:30am 17.1 WNW 4 5 1012.2 - 0.0 - - - - - - -
24/06:00am 17.2 WNW 7 9 1011.8 - 0.0 - - - - - - -
24/05:30am 17.2 W 6 8 1011.3 - 0.0 - - - - - - -
24/05:00am 17.0 WNW 6 7 1011.0 - 0.0 - - - - - - -
24/04:30am 17.0 WNW 8 10 1010.9 - 0.0 - - - - - - -
24/04:00am 17.2 WNW 7 9 1010.9 - 0.0 - - - - - - -
24/03:30am 16.7 NW 6 7 1011.0 - 0.0 - - - - - - -
24/03:00am 16.4 W 1 5 1010.7 - 0.0 - - - - - - -
24/02:30am 15.9 NNE 4 6 1010.9 - 0.0 - - - - - - -
24/02:00am 16.9 CALM 0 0 1011.0 - 0.0 - - - - - - -
24/01:30am 18.0 W 5 9 1011.1 - 0.0 - - - - - - -
24/01:00am 18.7 W 7 10 1011.0 - 0.0 - - - - - - -
24/12:30am 18.4 NNE 9 25 1010.8 - 0.0 - - - - - - -
24/12:29am 18.3 NE 8 25 1010.8 - 0.0 - - - - - - -
24/12:00am 17.8 SSE 13 19 1009.2 - 0.0 - - - - - - -
 
Date/Time
EDT
Temp
°C
Wind Pressure Rain since
9am
mm
Weather Cloud Vis
km
Sea
Height
m
Swell
Dir  Spd
kts
Gust
kts
hPa Trend Height
m
Period
s
Dir
23/11:30pm 18.2 S 4 6 1010.8 - 0.0 - - - - - - -
23/11:00pm 18.4 WSW 6 7 1011.3 - 0.0 - - - - - - -
23/10:30pm 19.3 WNW 5 8 1011.9 - 0.0 - - - - - - -
23/10:00pm 19.3 NW 10 17 1012.2 - 0.0 - - - - - - -
23/09:30pm 18.7 NW 11 14 1012.2 - 0.0 - - - - - - -
23/09:00pm 18.5 NW 12 16 1012.0 - 0.0 - - - - - - -
23/08:30pm 18.7 NW 16 21 1011.3 - 0.0 - - - - - - -
23/08:00pm 19.1 WNW 12 15 1010.6 - 0.0 - - - - - - -
23/07:30pm 19.2 WNW 9 12 1009.8 - 0.0 - - - - - - -
23/07:00pm 20.2 WNW 9 11 1009.5 - 0.0 - - - - - - -
23/06:30pm 20.0 WNW 11 14 1009.4 - 0.0 - - - - - - -
23/06:00pm 20.7 W 10 13 1009.0 - 0.0 - - - - - - -
23/05:30pm 20.3 W 10 13 1008.8 - 0.0 - - - - - - -
23/05:00pm 22.4 W 8 11 1008.9 - 0.0 - - - - - - -
23/04:30pm 23.1 W 7 9 1008.9 - 0.0 - - - - - - -
23/04:00pm 22.6 W 11 13 1009.2 - 0.0 - - - - - - -
23/03:30pm 22.6 W 9 12 1009.4 - 0.0 - - - - - - -
23/03:00pm 23.6 WNW 9 12 1009.4 - 0.0 - - - - - - -
23/02:30pm 23.3 W 9 12 1009.5 - 0.0 - - - - - - -
23/02:00pm 22.3 W 11 17 1009.7 - 0.0 - - - - - - -
23/01:30pm 21.0 W 11 14 1009.8 - 0.0 - - - - - - -
23/01:00pm 21.1 W 10 13 1010.0 - 0.0 - - - - - - -
23/12:30pm 21.8 W 9 14 1010.0 - 0.0 - - - - - - -
23/12:00pm 23.3 W 7 9 1009.9 - 0.0 - - - - - - -
23/11:30am 22.7 WSW 5 7 1010.0 - 0.0 - - - - - - -
23/11:00am 22.9 SSE 3 5 1009.8 - 0.0 - - - - - - -
23/10:30am 23.2 E 5 6 1009.8 - 0.0 - - - - - - -
23/10:00am 22.4 ENE 8 11 1009.8 - 0.0 - - - - - - -
23/09:30am 21.7 ENE 8 11 1010.0 - 0.0 - - - - - - -
23/09:00am 21.2 ENE 7 12 1009.9 - 0.0 - - - - - - -
23/08:30am 20.4 NE 9 14 1009.6 - 0.0 - - - - - - -
23/08:00am 19.7 ENE 12 16 1009.3 - 0.0 - - - - - - -
23/07:30am 19.2 NE 11 14 1009.4 - 0.0 - - - - - - -
23/07:00am 18.3 ENE 11 15 1009.3 - 0.0 - - - - - - -
23/06:30am 17.9 ENE 11 13 1009.1 - 0.0 - - - - - - -
23/06:00am 18.0 NE 11 13 1008.9 - 0.0 - - - - - - -
23/05:30am 19.2 NE 11 13 1008.8 - 0.0 - - - - - - -
23/05:00am 18.4 NNE 12 15 1008.6 - 0.0 - - - - - - -
23/04:30am 18.3 ENE 10 12 1008.9 - 0.0 - - - - - - -
23/04:00am 19.5 NE 11 14 1008.9 - 0.0 - - - - - - -
23/03:30am 19.1 NE 11 14 1009.0 - 0.0 - - - - - - -
23/03:00am 18.1 ENE 8 11 1009.2 - 0.0 - - - - - - -
23/02:30am 18.3 E 7 9 1009.6 - 0.0 - - - - - - -
23/02:00am 19.0 NE 9 13 1009.9 - 0.0 - - - - - - -
23/01:30am 18.7 NE 8 14 1010.2 - 0.0 - - - - - - -
23/01:00am 18.6 NE 8 11 1010.5 - 0.0 - - - - - - -
23/12:30am 19.0 NE 10 12 1010.6 - 0.0 - - - - - - -
23/12:00am 19.0 NE 10 13 1010.7 - 0.0 - - - - - - -
 
Date/Time
EDT
Temp
°C
Wind Pressure Rain since
9am
mm
Weather Cloud Vis
km
Sea
Height
m
Swell
Dir  Spd
kts
Gust
kts
hPa Trend Height
m
Period
s
Dir
22/11:30pm 19.2 NE 12 16 1010.8 - 0.0 - - - - - - -
22/11:00pm 19.3 NE 10 13 1011.0 - 0.0 - - - - - - -
22/10:30pm 19.2 NE 10 15 1011.0 - 0.0 - - - - - - -
22/10:00pm 18.7 NNE 8 11 1011.0 - 0.0 - - - - - - -
22/09:30pm 19.0 NE 11 15 1010.9 - 0.0 - - - - - - -
22/09:00pm 19.2 NE 11 16 1010.8 - 0.0 - - - - - - -
22/08:30pm 19.9 ENE 15 23 1010.7 - 0.0 - - - - - - -
22/08:00pm 20.5 ENE 16 23 1010.6 - 0.0 - - - - - - -
22/07:30pm 21.0 ENE 15 22 1010.4 - 0.0 - - - - - - -
22/07:00pm 21.7 NE 11 15 1010.6 - 0.0 - - - - - - -
22/06:30pm 22.1 ENE 13 17 1010.5 - 0.0 - - - - - - -
22/06:00pm 23.1 ENE 14 21 1010.7 - 0.0 - - - - - - -
22/05:30pm 24.0 ENE 12 17 1010.8 - 0.0 - - - - - - -
22/05:00pm 25.1 E 15 21 1011.0 - 0.0 - - - - - - -
22/04:30pm 27.2 NE 9 15 1011.2 - 0.0 - - - - - - -
22/04:00pm 26.8 E 9 11 1011.3 - 0.0 - - - - - - -
22/03:30pm 31.0 ENE 8 11 1011.5 - 0.0 - - - - - - -
22/03:00pm 32.5 ENE 8 12 1011.8 - 0.0 - - - - - - -

Other Formats:

Comma delimited format used in spreadsheet applications
http://www.bom.gov.au/fwo/IDV60701/IDV60701.94826.axf

JavaScript Object Notation format (JSON) in row-major order
http://www.bom.gov.au/fwo/IDV60701/IDV60701.94826.json